Terminal Aerodrome Forecast
Issued by NWS

Home | Current Version | Previous Version | Text Only | Print | Product List | Glossary On
Versions: 1 2 3 4 5 6 7 8 9 10 11 12 13 14 15 16
542
FTUS42 KMHX 211144 AAC
TAFOAJ
TAF AMD
KOAJ 211144Z 2112/2212 00000KT 1/2SM FG BKN003
     FM211400 VRB04KT 1 1/2SM BR BKN003
     FM211600 13005KT 3SM BR BKN007
     FM212000 14005KT 3SM -SHRA BR OVC007
     FM220300 19006KT 3SM BR OVC003
     FM220600 21005KT 2SM BR OVC003 WS020/21035KT
      AMD LTD TO CLD VIS AND WIND=

USA.gov is the U.S. government's official web portal to all federal, state and local government web resources and services.